sensor_id;sensor_type;location;lat;lon;timestamp;pressure;altitude;pressure_sealevel;temperature;humidity
55517;BME280;41724;51.176;-0.708;2023-04-15T00:02:16;100423.27;;;9.26;70.92
55517;BME280;41724;51.176;-0.708;2023-04-15T00:04:44;100430.83;;;9.93;71.66
55517;BME280;41724;51.176;-0.708;2023-04-15T00:07:11;100432.79;;;9.47;70.64
55517;BME280;41724;51.176;-0.708;2023-04-15T00:09:38;100433.10;;;9.07;71.07
55517;BME280;41724;51.176;-0.708;2023-04-15T00:12:05;100434.06;;;9.52;72.09
55517;BME280;41724;51.176;-0.708;2023-04-15T00:14:33;100440.19;;;9.47;71.49
55517;BME280;41724;51.176;-0.708;2023-04-15T00:17:03;100442.06;;;9.33;72.31
55517;BME280;41724;51.176;-0.708;2023-04-15T00:19:30;100440.18;;;9.12;71.22
55517;BME280;41724;51.176;-0.708;2023-04-15T00:21:57;100443.39;;;9.32;72.01
55517;BME280;41724;51.176;-0.708;2023-04-15T00:24:24;100445.70;;;8.53;76.33
55517;BME280;41724;51.176;-0.708;2023-04-15T00:26:51;100449.02;;;7.52;80.23
55517;BME280;41724;51.176;-0.708;2023-04-15T00:29:18;100454.35;;;7.45;82.25
55517;BME280;41724;51.176;-0.708;2023-04-15T00:31:46;100453.42;;;8.33;80.17
55517;BME280;41724;51.176;-0.708;2023-04-15T00:34:13;100450.55;;;8.32;79.53
55517;BME280;41724;51.176;-0.708;2023-04-15T00:36:40;100454.73;;;9.12;76.08
55517;BME280;41724;51.176;-0.708;2023-04-15T00:39:07;100454.69;;;8.90;75.40
55517;BME280;41724;51.176;-0.708;2023-04-15T00:41:34;100458.71;;;9.19;75.49
55517;BME280;41724;51.176;-0.708;2023-04-15T00:44:01;100456.67;;;9.29;74.46
55517;BME280;41724;51.176;-0.708;2023-04-15T00:46:30;100458.55;;;8.34;74.89
55517;BME280;41724;51.176;-0.708;2023-04-15T00:48:57;100460.54;;;8.02;78.16
55517;BME280;41724;51.176;-0.708;2023-04-15T00:51:24;100460.10;;;8.80;76.67
55517;BME280;41724;51.176;-0.708;2023-04-15T00:53:52;100463.01;;;9.42;73.93
55517;BME280;41724;51.176;-0.708;2023-04-15T00:56:20;100471.85;;;8.42;76.82
55517;BME280;41724;51.176;-0.708;2023-04-15T00:58:48;100466.75;;;8.35;76.58
55517;BME280;41724;51.176;-0.708;2023-04-15T01:01:15;100468.08;;;9.09;74.05
55517;BME280;41724;51.176;-0.708;2023-04-15T01:03:42;100472.73;;;9.21;73.44
55517;BME280;41724;51.176;-0.708;2023-04-15T01:06:09;100477.96;;;9.35;74.43
55517;BME280;41724;51.176;-0.708;2023-04-15T01:08:37;100481.35;;;9.07;72.52
55517;BME280;41724;51.176;-0.708;2023-04-15T01:11:04;100482.62;;;9.70;71.60
55517;BME280;41724;51.176;-0.708;2023-04-15T01:13:33;100482.92;;;9.43;71.83
55517;BME280;41724;51.176;-0.708;2023-04-15T01:16:00;100481.49;;;9.79;70.37
55517;BME280;41724;51.176;-0.708;2023-04-15T01:18:28;100487.01;;;9.18;70.94
55517;BME280;41724;51.176;-0.708;2023-04-15T01:20:55;100480.55;;;9.08;71.46
55517;BME280;41724;51.176;-0.708;2023-04-15T01:23:22;100482.54;;;9.04;71.44
55517;BME280;41724;51.176;-0.708;2023-04-15T01:25:50;100484.51;;;8.99;71.84
55517;BME280;41724;51.176;-0.708;2023-04-15T01:28:19;100491.39;;;8.80;70.86
55517;BME280;41724;51.176;-0.708;2023-04-15T01:30:46;100496.27;;;8.78;72.38
55517;BME280;41724;51.176;-0.708;2023-04-15T01:33:13;100499.65;;;8.06;74.84
55517;BME280;41724;51.176;-0.708;2023-04-15T01:35:40;100506.63;;;8.64;74.76
55517;BME280;41724;51.176;-0.708;2023-04-15T01:38:09;100512.20;;;8.39;73.41
55517;BME280;41724;51.176;-0.708;2023-04-15T01:40:37;100516.48;;;8.59;73.03
55517;BME280;41724;51.176;-0.708;2023-04-15T01:43:04;100519.06;;;8.29;75.18
55517;BME280;41724;51.176;-0.708;2023-04-15T01:45:31;100523.46;;;8.18;75.06
55517;BME280;41724;51.176;-0.708;2023-04-15T01:47:58;100531.22;;;8.05;76.29
55517;BME280;41724;51.176;-0.708;2023-04-15T01:50:26;100535.90;;;7.13;78.81
55517;BME280;41724;51.176;-0.708;2023-04-15T01:52:53;100535.58;;;7.47;77.87
55517;BME280;41724;51.176;-0.708;2023-04-15T01:55:20;100540.69;;;7.65;77.81
55517;BME280;41724;51.176;-0.708;2023-04-15T01:57:47;100543.32;;;7.66;79.04
55517;BME280;41724;51.176;-0.708;2023-04-15T02:00:14;100547.32;;;8.20;75.83
55517;BME280;41724;51.176;-0.708;2023-04-15T02:02:42;100550.57;;;8.06;75.65
55517;BME280;41724;51.176;-0.708;2023-04-15T02:05:09;100556.52;;;7.59;77.16
55517;BME280;41724;51.176;-0.708;2023-04-15T02:07:36;100561.88;;;7.34;77.93
55517;BME280;41724;51.176;-0.708;2023-04-15T02:10:04;100561.75;;;7.60;80.22
55517;BME280;41724;51.176;-0.708;2023-04-15T02:12:31;100562.56;;;7.72;76.82
55517;BME280;41724;51.176;-0.708;2023-04-15T02:14:58;100567.13;;;8.15;75.27
55517;BME280;41724;51.176;-0.708;2023-04-15T02:17:25;100568.82;;;7.74;78.45
55517;BME280;41724;51.176;-0.708;2023-04-15T02:19:54;100570.72;;;7.93;76.89
55517;BME280;41724;51.176;-0.708;2023-04-15T02:22:22;100578.62;;;7.87;75.88
55517;BME280;41724;51.176;-0.708;2023-04-15T02:24:49;100581.34;;;8.77;74.68
55517;BME280;41724;51.176;-0.708;2023-04-15T02:27:17;100580.97;;;8.08;74.70
55517;BME280;41724;51.176;-0.708;2023-04-15T02:29:44;100583.25;;;8.52;73.76
55517;BME280;41724;51.176;-0.708;2023-04-15T02:32:12;100588.17;;;8.76;73.65
55517;BME280;41724;51.176;-0.708;2023-04-15T02:34:39;100596.41;;;9.10;71.91
55517;BME280;41724;51.176;-0.708;2023-04-15T02:37:06;100598.64;;;8.27;73.06
55517;BME280;41724;51.176;-0.708;2023-04-15T02:39:34;100596.78;;;8.13;72.27
55517;BME280;41724;51.176;-0.708;2023-04-15T02:42:01;100600.10;;;9.04;71.85
55517;BME280;41724;51.176;-0.708;2023-04-15T02:44:28;100601.50;;;8.44;72.40
55517;BME280;41724;51.176;-0.708;2023-04-15T02:46:55;100607.56;;;9.29;71.66
55517;BME280;41724;51.176;-0.708;2023-04-15T02:49:22;100610.00;;;8.77;71.85
55517;BME280;41724;51.176;-0.708;2023-04-15T02:51:49;100617.68;;;8.87;71.06
55517;BME280;41724;51.176;-0.708;2023-04-15T02:54:16;100624.84;;;7.73;74.45
55517;BME280;41724;51.176;-0.708;2023-04-15T02:56:43;100627.32;;;7.70;75.90
55517;BME280;41724;51.176;-0.708;2023-04-15T02:59:11;100626.18;;;8.01;74.09
55517;BME280;41724;51.176;-0.708;2023-04-15T03:01:39;100635.72;;;7.77;73.83
55517;BME280;41724;51.176;-0.708;2023-04-15T03:04:06;100641.16;;;7.80;73.98
55517;BME280;41724;51.176;-0.708;2023-04-15T03:06:34;100640.82;;;7.32;77.37
55517;BME280;41724;51.176;-0.708;2023-04-15T03:09:02;100647.07;;;7.86;76.29
55517;BME280;41724;51.176;-0.708;2023-04-15T03:11:29;100647.23;;;8.26;74.16
55517;BME280;41724;51.176;-0.708;2023-04-15T03:13:56;100656.93;;;8.04;74.26
55517;BME280;41724;51.176;-0.708;2023-04-15T03:16:24;100664.03;;;8.53;72.14
55517;BME280;41724;51.176;-0.708;2023-04-15T03:18:51;100661.09;;;8.21;72.29
55517;BME280;41724;51.176;-0.708;2023-04-15T03:21:18;100662.79;;;8.24;71.77
55517;BME280;41724;51.176;-0.708;2023-04-15T03:23:47;100672.68;;;7.27;75.71
55517;BME280;41724;51.176;-0.708;2023-04-15T03:26:23;100683.83;;;7.46;76.69
55517;BME280;41724;51.176;-0.708;2023-04-15T03:28:50;100681.74;;;8.00;74.73
55517;BME280;41724;51.176;-0.708;2023-04-15T03:31:17;100687.02;;;8.11;74.00
55517;BME280;41724;51.176;-0.708;2023-04-15T03:33:44;100687.73;;;7.55;76.07
55517;BME280;41724;51.176;-0.708;2023-04-15T03:36:12;100694.83;;;8.45;73.27
55517;BME280;41724;51.176;-0.708;2023-04-15T03:38:38;100693.35;;;8.75;72.45
55517;BME280;41724;51.176;-0.708;2023-04-15T03:41:05;100695.48;;;8.40;71.63
55517;BME280;41724;51.176;-0.708;2023-04-15T03:43:32;100702.44;;;8.45;72.90
55517;BME280;41724;51.176;-0.708;2023-04-15T03:46:00;100708.78;;;8.21;72.31
55517;BME280;41724;51.176;-0.708;2023-04-15T03:48:27;100720.82;;;8.78;70.84
55517;BME280;41724;51.176;-0.708;2023-04-15T03:50:54;100715.42;;;8.04;74.01
55517;BME280;41724;51.176;-0.708;2023-04-15T03:53:21;100722.07;;;8.00;73.51
55517;BME280;41724;51.176;-0.708;2023-04-15T03:55:48;100727.86;;;7.73;74.41
55517;BME280;41724;51.176;-0.708;2023-04-15T03:58:15;100731.38;;;8.49;73.70
55517;BME280;41724;51.176;-0.708;2023-04-15T04:00:43;100730.25;;;8.14;73.44
55517;BME280;41724;51.176;-0.708;2023-04-15T04:03:10;100733.51;;;8.01;73.41
55517;BME280;41724;51.176;-0.708;2023-04-15T04:05:37;100734.65;;;8.21;73.29
55517;BME280;41724;51.176;-0.708;2023-04-15T04:08:05;100736.07;;;7.80;76.08
55517;BME280;41724;51.176;-0.708;2023-04-15T04:10:32;100735.69;;;8.53;74.18
55517;BME280;41724;51.176;-0.708;2023-04-15T04:12:59;100741.56;;;8.06;73.88
55517;BME280;41724;51.176;-0.708;2023-04-15T04:15:26;100746.54;;;7.89;74.16
55517;BME280;41724;51.176;-0.708;2023-04-15T04:17:53;100747.42;;;7.93;74.96
55517;BME280;41724;51.176;-0.708;2023-04-15T04:20:21;100747.90;;;8.44;72.92
55517;BME280;41724;51.176;-0.708;2023-04-15T04:22:48;100751.49;;;8.59;72.65
55517;BME280;41724;51.176;-0.708;2023-04-15T04:25:16;100755.97;;;8.77;71.90
55517;BME280;41724;51.176;-0.708;2023-04-15T04:27:43;100762.72;;;8.37;72.84
55517;BME280;41724;51.176;-0.708;2023-04-15T04:30:11;100767.07;;;8.74;71.76
55517;BME280;41724;51.176;-0.708;2023-04-15T04:32:39;100767.61;;;8.35;71.80
55517;BME280;41724;51.176;-0.708;2023-04-15T04:35:06;100769.84;;;8.26;71.75
55517;BME280;41724;51.176;-0.708;2023-04-15T04:37:33;100777.21;;;8.24;73.57
55517;BME280;41724;51.176;-0.708;2023-04-15T04:40:00;100785.23;;;7.90;73.43
55517;BME280;41724;51.176;-0.708;2023-04-15T04:42:28;100791.54;;;8.29;74.00
55517;BME280;41724;51.176;-0.708;2023-04-15T04:44:54;100799.02;;;8.15;75.13
55517;BME280;41724;51.176;-0.708;2023-04-15T04:47:21;100802.80;;;8.27;73.97
55517;BME280;41724;51.176;-0.708;2023-04-15T04:49:48;100811.80;;;7.34;77.35
55517;BME280;41724;51.176;-0.708;2023-04-15T04:52:15;100819.45;;;7.91;74.95
55517;BME280;41724;51.176;-0.708;2023-04-15T04:54:43;100828.70;;;7.75;76.55
55517;BME280;41724;51.176;-0.708;2023-04-15T04:57:10;100826.35;;;7.84;75.94
55517;BME280;41724;51.176;-0.708;2023-04-15T04:59:37;100833.32;;;7.38;77.83
55517;BME280;41724;51.176;-0.708;2023-04-15T05:02:04;100834.27;;;8.22;75.66
55517;BME280;41724;51.176;-0.708;2023-04-15T05:04:32;100842.65;;;8.04;74.84
55517;BME280;41724;51.176;-0.708;2023-04-15T05:07:01;100848.88;;;8.67;73.25
55517;BME280;41724;51.176;-0.708;2023-04-15T05:09:28;100851.09;;;8.56;71.87
55517;BME280;41724;51.176;-0.708;2023-04-15T05:11:56;100855.81;;;8.67;70.76
55517;BME280;41724;51.176;-0.708;2023-04-15T05:14:23;100863.98;;;8.52;72.26
55517;BME280;41724;51.176;-0.708;2023-04-15T05:16:50;100870.62;;;8.75;71.93
55517;BME280;41724;51.176;-0.708;2023-04-15T05:19:17;100869.99;;;9.13;71.79
55517;BME280;41724;51.176;-0.708;2023-04-15T05:21:44;100880.54;;;8.50;71.66
55517;BME280;41724;51.176;-0.708;2023-04-15T05:24:11;100883.37;;;8.49;71.17
55517;BME280;41724;51.176;-0.708;2023-04-15T05:26:39;100887.08;;;8.62;71.95
55517;BME280;41724;51.176;-0.708;2023-04-15T05:29:06;100894.93;;;8.13;72.66
55517;BME280;41724;51.176;-0.708;2023-04-15T05:31:33;100895.61;;;8.93;71.13
55517;BME280;41724;51.176;-0.708;2023-04-15T05:34:00;100897.47;;;9.30;69.35
55517;BME280;41724;51.176;-0.708;2023-04-15T05:36:27;100907.96;;;8.55;71.13
55517;BME280;41724;51.176;-0.708;2023-04-15T05:38:54;100910.40;;;9.27;69.12
55517;BME280;41724;51.176;-0.708;2023-04-15T05:41:21;100918.31;;;9.16;69.70
55517;BME280;41724;51.176;-0.708;2023-04-15T05:43:48;100929.04;;;8.36;70.38
55517;BME280;41724;51.176;-0.708;2023-04-15T05:46:16;100932.44;;;8.76;71.54
55517;BME280;41724;51.176;-0.708;2023-04-15T05:48:43;100942.81;;;8.65;72.59
55517;BME280;41724;51.176;-0.708;2023-04-15T05:51:10;100945.40;;;8.98;70.17
55517;BME280;41724;51.176;-0.708;2023-04-15T05:53:37;100951.80;;;9.42;69.99
55517;BME280;41724;51.176;-0.708;2023-04-15T05:56:04;100955.84;;;9.20;69.25
55517;BME280;41724;51.176;-0.708;2023-04-15T05:58:31;100956.87;;;9.64;68.89
55517;BME280;41724;51.176;-0.708;2023-04-15T06:00:59;100962.37;;;9.82;68.31
55517;BME280;41724;51.176;-0.708;2023-04-15T06:03:26;100970.97;;;9.24;67.85
55517;BME280;41724;51.176;-0.708;2023-04-15T06:05:53;100979.94;;;9.21;67.60
55517;BME280;41724;51.176;-0.708;2023-04-15T06:08:20;100983.83;;;9.48;68.40
55517;BME280;41724;51.176;-0.708;2023-04-15T06:10:48;100991.07;;;9.51;68.04
55517;BME280;41724;51.176;-0.708;2023-04-15T06:13:14;101004.04;;;8.44;71.06
55517;BME280;41724;51.176;-0.708;2023-04-15T06:15:42;101005.04;;;8.56;71.14
55517;BME280;41724;51.176;-0.708;2023-04-15T06:18:09;101003.86;;;8.70;70.22
55517;BME280;41724;51.176;-0.708;2023-04-15T06:20:36;101005.54;;;8.17;72.85
55517;BME280;41724;51.176;-0.708;2023-04-15T06:23:03;101011.54;;;8.57;72.33
55517;BME280;41724;51.176;-0.708;2023-04-15T06:25:30;101018.13;;;8.85;70.54
55517;BME280;41724;51.176;-0.708;2023-04-15T06:27:59;101019.93;;;8.51;72.29
55517;BME280;41724;51.176;-0.708;2023-04-15T06:30:26;101027.20;;;9.17;70.39
55517;BME280;41724;51.176;-0.708;2023-04-15T06:32:54;101028.66;;;9.19;70.97
55517;BME280;41724;51.176;-0.708;2023-04-15T06:35:21;101030.79;;;9.50;69.78
55517;BME280;41724;51.176;-0.708;2023-04-15T06:37:48;101036.25;;;9.38;68.00
55517;BME280;41724;51.176;-0.708;2023-04-15T06:40:15;101045.50;;;9.67;68.78
55517;BME280;41724;51.176;-0.708;2023-04-15T06:42:42;101048.83;;;8.79;69.39
55517;BME280;41724;51.176;-0.708;2023-04-15T06:45:10;101057.11;;;8.95;69.74
55517;BME280;41724;51.176;-0.708;2023-04-15T06:47:37;101060.62;;;9.35;69.07
55517;BME280;41724;51.176;-0.708;2023-04-15T06:50:05;101062.08;;;8.48;70.75
55517;BME280;41724;51.176;-0.708;2023-04-15T06:52:32;101069.99;;;7.80;73.92
55517;BME280;41724;51.176;-0.708;2023-04-15T06:55:00;101067.84;;;7.78;74.40
55517;BME280;41724;51.176;-0.708;2023-04-15T06:57:27;101072.88;;;8.79;72.31
55517;BME280;41724;51.176;-0.708;2023-04-15T06:59:55;101076.04;;;8.31;72.61
55517;BME280;41724;51.176;-0.708;2023-04-15T07:02:22;101087.15;;;8.75;70.87
55517;BME280;41724;51.176;-0.708;2023-04-15T07:04:49;101083.60;;;9.42;70.72
55517;BME280;41724;51.176;-0.708;2023-04-15T07:07:17;101086.99;;;8.74;70.23
55517;BME280;41724;51.176;-0.708;2023-04-15T07:09:44;101091.92;;;9.04;69.14
55517;BME280;41724;51.176;-0.708;2023-04-15T07:12:11;101098.66;;;9.19;68.54
55517;BME280;41724;51.176;-0.708;2023-04-15T07:14:38;101110.96;;;8.76;71.19
55517;BME280;41724;51.176;-0.708;2023-04-15T07:17:05;101115.81;;;9.23;71.02
55517;BME280;41724;51.176;-0.708;2023-04-15T07:19:32;101121.02;;;10.09;68.96
55517;BME280;41724;51.176;-0.708;2023-04-15T07:22:00;101129.05;;;9.25;71.36
55517;BME280;41724;51.176;-0.708;2023-04-15T07:24:27;101124.97;;;9.85;70.18
55517;BME280;41724;51.176;-0.708;2023-04-15T07:26:54;101130.22;;;9.83;68.48
55517;BME280;41724;51.176;-0.708;2023-04-15T07:29:22;101134.13;;;10.29;65.78
55517;BME280;41724;51.176;-0.708;2023-04-15T07:31:49;101135.65;;;10.56;65.15
55517;BME280;41724;51.176;-0.708;2023-04-15T07:34:22;101142.89;;;10.66;65.85
55517;BME280;41724;51.176;-0.708;2023-04-15T07:36:54;101148.80;;;9.88;66.87
55517;BME280;41724;51.176;-0.708;2023-04-15T07:39:21;101150.22;;;9.89;67.44
55517;BME280;41724;51.176;-0.708;2023-04-15T07:41:49;101154.79;;;10.71;66.48
55517;BME280;41724;51.176;-0.708;2023-04-15T07:44:16;101160.15;;;10.82;66.41
55517;BME280;41724;51.176;-0.708;2023-04-15T07:46:48;101161.64;;;10.91;65.04
55517;BME280;41724;51.176;-0.708;2023-04-15T07:49:16;101170.68;;;11.11;63.74
55517;BME280;41724;51.176;-0.708;2023-04-15T07:51:43;101169.00;;;10.60;64.57
55517;BME280;41724;51.176;-0.708;2023-04-15T07:54:10;101176.25;;;10.69;65.11
55517;BME280;41724;51.176;-0.708;2023-04-15T07:56:37;101178.08;;;10.95;64.70
55517;BME280;41724;51.176;-0.708;2023-04-15T07:59:04;101185.28;;;11.42;64.65
55517;BME280;41724;51.176;-0.708;2023-04-15T08:01:31;101183.27;;;11.65;63.58
55517;BME280;41724;51.176;-0.708;2023-04-15T08:04:03;101188.05;;;10.84;65.43
55517;BME280;41724;51.176;-0.708;2023-04-15T08:06:36;101198.31;;;11.40;64.04
55517;BME280;41724;51.176;-0.708;2023-04-15T08:09:03;101203.33;;;11.42;62.08
55517;BME280;41724;51.176;-0.708;2023-04-15T08:11:30;101203.85;;;11.00;63.06
55517;BME280;41724;51.176;-0.708;2023-04-15T08:13:58;101211.18;;;10.97;64.43
55517;BME280;41724;51.176;-0.708;2023-04-15T08:16:26;101216.08;;;11.39;63.61
55517;BME280;41724;51.176;-0.708;2023-04-15T08:18:59;101217.23;;;11.64;63.44
55517;BME280;41724;51.176;-0.708;2023-04-15T08:21:26;101221.15;;;11.85;63.49
55517;BME280;41724;51.176;-0.708;2023-04-15T08:23:53;101230.38;;;11.81;62.44
55517;BME280;41724;51.176;-0.708;2023-04-15T08:26:20;101234.67;;;11.33;64.04
55517;BME280;41724;51.176;-0.708;2023-04-15T08:28:47;101239.79;;;10.74;64.41
55517;BME280;41724;51.176;-0.708;2023-04-15T08:31:16;101242.87;;;11.34;63.15
55517;BME280;41724;51.176;-0.708;2023-04-15T08:33:43;101251.56;;;10.91;63.05
55517;BME280;41724;51.176;-0.708;2023-04-15T08:36:11;101254.73;;;11.91;63.45
55517;BME280;41724;51.176;-0.708;2023-04-15T08:38:39;101255.16;;;11.63;63.92
55517;BME280;41724;51.176;-0.708;2023-04-15T08:41:11;101251.83;;;11.85;62.84
55517;BME280;41724;51.176;-0.708;2023-04-15T08:43:48;101255.25;;;11.73;63.02
55517;BME280;41724;51.176;-0.708;2023-04-15T08:46:17;101263.44;;;12.24;63.12
55517;BME280;41724;51.176;-0.708;2023-04-15T08:48:47;101269.25;;;12.39;61.17
55517;BME280;41724;51.176;-0.708;2023-04-15T08:51:14;101276.86;;;12.33;62.33
55517;BME280;41724;51.176;-0.708;2023-04-15T08:53:43;101278.86;;;12.44;61.78
55517;BME280;41724;51.176;-0.708;2023-04-15T08:56:11;101284.79;;;12.52;61.45
55517;BME280;41724;51.176;-0.708;2023-04-15T08:58:40;101294.41;;;11.69;59.88
55517;BME280;41724;51.176;-0.708;2023-04-15T09:01:06;101296.64;;;11.73;63.04
55517;BME280;41724;51.176;-0.708;2023-04-15T09:03:34;101298.27;;;11.73;63.04
55517;BME280;41724;51.176;-0.708;2023-04-15T09:06:03;101305.03;;;12.13;62.40
55517;BME280;41724;51.176;-0.708;2023-04-15T09:08:30;101308.14;;;12.32;61.90
55517;BME280;41724;51.176;-0.708;2023-04-15T09:10:57;101307.34;;;13.24;60.35
55517;BME280;41724;51.176;-0.708;2023-04-15T09:13:25;101317.20;;;13.09;59.45
55517;BME280;41724;51.176;-0.708;2023-04-15T09:15:52;101319.34;;;12.66;58.67
55517;BME280;41724;51.176;-0.708;2023-04-15T09:18:27;101321.95;;;12.63;60.45
55517;BME280;41724;51.176;-0.708;2023-04-15T09:21:04;101326.30;;;13.47;56.89
55517;BME280;41724;51.176;-0.708;2023-04-15T09:23:32;101333.87;;;13.31;59.11
55517;BME280;41724;51.176;-0.708;2023-04-15T09:26:00;101337.04;;;13.29;58.93
55517;BME280;41724;51.176;-0.708;2023-04-15T09:28:28;101341.69;;;13.39;57.97
55517;BME280;41724;51.176;-0.708;2023-04-15T09:30:57;101341.53;;;13.43;57.81
55517;BME280;41724;51.176;-0.708;2023-04-15T09:33:26;101350.64;;;12.88;57.55
55517;BME280;41724;51.176;-0.708;2023-04-15T09:35:59;101354.42;;;13.37;57.79
55517;BME280;41724;51.176;-0.708;2023-04-15T09:38:27;101357.84;;;13.41;56.59
55517;BME280;41724;51.176;-0.708;2023-04-15T09:40:56;101363.87;;;13.35;59.12
55517;BME280;41724;51.176;-0.708;2023-04-15T09:43:37;101366.33;;;13.39;58.67
55517;BME280;41724;51.176;-0.708;2023-04-15T09:46:05;101365.12;;;13.37;57.61
55517;BME280;41724;51.176;-0.708;2023-04-15T09:48:32;101366.25;;;13.20;57.50
55517;BME280;41724;51.176;-0.708;2023-04-15T09:51:00;101368.30;;;13.77;58.13
55517;BME280;41724;51.176;-0.708;2023-04-15T09:53:27;101375.55;;;13.32;58.07
55517;BME280;41724;51.176;-0.708;2023-04-15T09:55:55;101383.11;;;13.79;58.26
55517;BME280;41724;51.176;-0.708;2023-04-15T09:58:24;101384.93;;;13.68;58.79
55517;BME280;41724;51.176;-0.708;2023-04-15T10:00:53;101388.55;;;12.96;59.63
55517;BME280;41724;51.176;-0.708;2023-04-15T10:03:21;101385.87;;;13.28;58.45
55517;BME280;41724;51.176;-0.708;2023-04-15T10:05:50;101385.75;;;13.31;57.67
55517;BME280;41724;51.176;-0.708;2023-04-15T10:08:20;101381.69;;;13.87;55.96
55517;BME280;41724;51.176;-0.708;2023-04-15T10:10:48;101384.15;;;13.89;55.84
55517;BME280;41724;51.176;-0.708;2023-04-15T10:13:17;101393.15;;;14.87;54.87
55517;BME280;41724;51.176;-0.708;2023-04-15T10:15:55;101397.95;;;13.93;55.80
55517;BME280;41724;51.176;-0.708;2023-04-15T10:18:25;101405.78;;;14.53;54.74
55517;BME280;41724;51.176;-0.708;2023-04-15T10:20:53;101408.90;;;14.49;54.47
55517;BME280;41724;51.176;-0.708;2023-04-15T10:23:21;101410.68;;;13.60;55.75
55517;BME280;41724;51.176;-0.708;2023-04-15T10:25:51;101411.58;;;12.78;56.23
55517;BME280;41724;51.176;-0.708;2023-04-15T10:28:19;101414.06;;;12.69;57.97
55517;BME280;41724;51.176;-0.708;2023-04-15T10:30:47;101419.30;;;13.43;57.97
55517;BME280;41724;51.176;-0.708;2023-04-15T10:33:22;101427.78;;;13.09;57.69
55517;BME280;41724;51.176;-0.708;2023-04-15T10:35:50;101427.33;;;13.78;57.10
55517;BME280;41724;51.176;-0.708;2023-04-15T10:38:35;101435.14;;;14.49;55.43
55517;BME280;41724;51.176;-0.708;2023-04-15T10:41:20;101434.73;;;13.68;54.43
55517;BME280;41724;51.176;-0.708;2023-04-15T10:43:50;101445.49;;;14.19;54.08
55517;BME280;41724;51.176;-0.708;2023-04-15T10:46:19;101453.28;;;13.89;54.33
55517;BME280;41724;51.176;-0.708;2023-04-15T10:48:48;101454.36;;;14.08;54.38
55517;BME280;41724;51.176;-0.708;2023-04-15T10:51:30;101458.60;;;14.17;56.05
55517;BME280;41724;51.176;-0.708;2023-04-15T10:53:59;101460.53;;;14.26;54.28
55517;BME280;41724;51.176;-0.708;2023-04-15T10:56:28;101464.23;;;13.27;55.45
55517;BME280;41724;51.176;-0.708;2023-04-15T10:58:58;101464.93;;;13.78;54.01
55517;BME280;41724;51.176;-0.708;2023-04-15T11:01:49;101474.60;;;13.93;55.67
55517;BME280;41724;51.176;-0.708;2023-04-15T11:04:50;101478.15;;;14.35;54.30
55517;BME280;41724;51.176;-0.708;2023-04-15T11:07:39;101481.57;;;14.98;53.32
55517;BME280;41724;51.176;-0.708;2023-04-15T11:10:52;101479.82;;;14.97;52.27
55517;BME280;41724;51.176;-0.708;2023-04-15T11:13:23;101486.71;;;15.86;51.75
55517;BME280;41724;51.176;-0.708;2023-04-15T11:16:01;101487.49;;;15.95;50.93
55517;BME280;41724;51.176;-0.708;2023-04-15T11:18:31;101483.47;;;16.30;50.14
55517;BME280;41724;51.176;-0.708;2023-04-15T11:21:00;101486.58;;;16.90;48.55
55517;BME280;41724;51.176;-0.708;2023-04-15T11:23:34;101500.79;;;16.17;48.24
55517;BME280;41724;51.176;-0.708;2023-04-15T11:26:03;101506.68;;;16.61;48.47
55517;BME280;41724;51.176;-0.708;2023-04-15T11:28:32;101508.07;;;16.66;47.31
55517;BME280;41724;51.176;-0.708;2023-04-15T11:31:06;101510.88;;;16.23;46.59
55517;BME280;41724;51.176;-0.708;2023-04-15T11:33:45;101517.09;;;16.32;47.14
55517;BME280;41724;51.176;-0.708;2023-04-15T11:36:18;101518.68;;;16.49;47.28
55517;BME280;41724;51.176;-0.708;2023-04-15T11:38:46;101521.05;;;16.63;47.15
55517;BME280;41724;51.176;-0.708;2023-04-15T11:41:14;101525.03;;;17.01;45.35
55517;BME280;41724;51.176;-0.708;2023-04-15T11:43:46;101533.58;;;16.66;46.38
55517;BME280;41724;51.176;-0.708;2023-04-15T11:46:13;101535.63;;;16.30;47.70
55517;BME280;41724;51.176;-0.708;2023-04-15T11:48:42;101536.15;;;16.20;48.29
55517;BME280;41724;51.176;-0.708;2023-04-15T11:51:11;101541.94;;;16.01;48.54
55517;BME280;41724;51.176;-0.708;2023-04-15T11:53:40;101540.63;;;16.55;48.92
55517;BME280;41724;51.176;-0.708;2023-04-15T11:56:08;101541.90;;;16.92;48.20
55517;BME280;41724;51.176;-0.708;2023-04-15T11:58:37;101538.87;;;17.31;46.58
55517;BME280;41724;51.176;-0.708;2023-04-15T12:01:05;101535.48;;;16.31;49.83
55517;BME280;41724;51.176;-0.708;2023-04-15T12:03:37;101534.88;;;16.93;50.97
55517;BME280;41724;51.176;-0.708;2023-04-15T12:06:11;101533.33;;;17.03;50.06
55517;BME280;41724;51.176;-0.708;2023-04-15T12:09:11;101531.12;;;17.32;50.87
55517;BME280;41724;51.176;-0.708;2023-04-15T12:11:41;101535.89;;;16.25;47.84
55517;BME280;41724;51.176;-0.708;2023-04-15T12:14:12;101538.99;;;16.79;53.74
55517;BME280;41724;51.176;-0.708;2023-04-15T12:16:44;101532.57;;;17.24;50.31
55517;BME280;41724;51.176;-0.708;2023-04-15T12:19:13;101535.09;;;16.90;51.23
55517;BME280;41724;51.176;-0.708;2023-04-15T12:21:43;101533.23;;;17.05;49.29
55517;BME280;41724;51.176;-0.708;2023-04-15T12:24:11;101538.33;;;16.89;46.78
55517;BME280;41724;51.176;-0.708;2023-04-15T12:26:43;101534.00;;;17.94;46.32
55517;BME280;41724;51.176;-0.708;2023-04-15T12:29:14;101538.60;;;17.67;44.82
55517;BME280;41724;51.176;-0.708;2023-04-15T12:31:51;101542.20;;;17.97;44.03
55517;BME280;41724;51.176;-0.708;2023-04-15T12:34:25;101541.47;;;17.90;49.47
55517;BME280;41724;51.176;-0.708;2023-04-15T12:36:53;101540.94;;;18.03;45.09
55517;BME280;41724;51.176;-0.708;2023-04-15T12:39:22;101540.80;;;18.79;47.90
55517;BME280;41724;51.176;-0.708;2023-04-15T12:41:50;101543.73;;;18.65;43.88
55517;BME280;41724;51.176;-0.708;2023-04-15T12:44:17;101540.97;;;19.70;43.68
55517;BME280;41724;51.176;-0.708;2023-04-15T12:46:45;101550.04;;;19.03;42.15
55517;BME280;41724;51.176;-0.708;2023-04-15T12:49:12;101552.87;;;19.01;40.69
55517;BME280;41724;51.176;-0.708;2023-04-15T12:51:39;101556.91;;;18.99;44.73
55517;BME280;41724;51.176;-0.708;2023-04-15T12:54:06;101557.81;;;18.72;42.49